sensor_id;sensor_type;location;lat;lon;timestamp;temperature;humidity
6824;DHT22;58633;49.470;11.004;2023-02-18T00:00:08;12.10;89.40
6824;DHT22;58633;49.470;11.004;2023-02-18T00:02:34;12.00;90.20
6824;DHT22;58633;49.470;11.004;2023-02-18T00:07:25;12.00;90.50
6824;DHT22;58633;49.470;11.004;2023-02-18T00:09:51;11.60;90.70
6824;DHT22;58633;49.470;11.004;2023-02-18T00:12:16;12.20;91.20
6824;DHT22;58633;49.470;11.004;2023-02-18T00:14:42;11.80;91.80
6824;DHT22;58633;49.470;11.004;2023-02-18T00:17:07;12.20;92.80
6824;DHT22;58633;49.470;11.004;2023-02-18T00:19:33;11.80;93.20
6824;DHT22;58633;49.470;11.004;2023-02-18T00:21:58;12.00;93.60
6824;DHT22;58633;49.470;11.004;2023-02-18T00:24:24;11.70;93.20
6824;DHT22;58633;49.470;11.004;2023-02-18T00:26:51;11.80;93.50
6824;DHT22;58633;49.470;11.004;2023-02-18T00:29:17;11.80;93.10
6824;DHT22;58633;49.470;11.004;2023-02-18T00:31:43;12.00;93.50
6824;DHT22;58633;49.470;11.004;2023-02-18T00:34:10;12.00;93.10
6824;DHT22;58633;49.470;11.004;2023-02-18T00:36:36;12.40;93.20
6824;DHT22;58633;49.470;11.004;2023-02-18T00:39:05;11.80;93.20
6824;DHT22;58633;49.470;11.004;2023-02-18T00:41:32;11.80;93.10
6824;DHT22;58633;49.470;11.004;2023-02-18T00:46:25;12.00;93.20
6824;DHT22;58633;49.470;11.004;2023-02-18T00:48:51;11.90;93.10
6824;DHT22;58633;49.470;11.004;2023-02-18T00:51:17;11.90;93.20
6824;DHT22;58633;49.470;11.004;2023-02-18T00:56:09;11.90;92.80
6824;DHT22;58633;49.470;11.004;2023-02-18T00:58:35;11.70;92.80
6824;DHT22;58633;49.470;11.004;2023-02-18T01:01:01;12.30;93.40
6824;DHT22;58633;49.470;11.004;2023-02-18T01:03:27;11.70;93.50
6824;DHT22;58633;49.470;11.004;2023-02-18T01:05:53;11.90;94.00
6824;DHT22;58633;49.470;11.004;2023-02-18T01:08:19;11.80;94.00
6824;DHT22;58633;49.470;11.004;2023-02-18T01:10:47;11.80;94.60
6824;DHT22;58633;49.470;11.004;2023-02-18T01:13:13;11.80;94.80
6824;DHT22;58633;49.470;11.004;2023-02-18T01:15:40;13.40;96.10
6824;DHT22;58633;49.470;11.004;2023-02-18T01:18:06;12.00;95.90
6824;DHT22;58633;49.470;11.004;2023-02-18T01:20:36;11.50;97.70
6824;DHT22;58633;49.470;11.004;2023-02-18T01:23:03;11.60;98.80
6824;DHT22;58633;49.470;11.004;2023-02-18T01:25:29;11.30;99.10
6824;DHT22;58633;49.470;11.004;2023-02-18T01:27:56;11.40;99.70
6824;DHT22;58633;49.470;11.004;2023-02-18T01:30:22;11.50;99.90
6824;DHT22;58633;49.470;11.004;2023-02-18T01:32:48;11.40;99.90
6824;DHT22;58633;49.470;11.004;2023-02-18T01:35:15;11.30;99.90
6824;DHT22;58633;49.470;11.004;2023-02-18T01:37:41;11.30;99.90
6824;DHT22;58633;49.470;11.004;2023-02-18T01:40:10;11.50;99.90
6824;DHT22;58633;49.470;11.004;2023-02-18T01:42:36;11.30;99.90
6824;DHT22;58633;49.470;11.004;2023-02-18T01:48:03;11.20;99.90
6824;DHT22;58633;49.470;11.004;2023-02-18T01:50:31;11.20;99.90
6824;DHT22;58633;49.470;11.004;2023-02-18T01:52:57;10.90;99.90
6824;DHT22;58633;49.470;11.004;2023-02-18T01:55:24;11.30;99.90
6824;DHT22;58633;49.470;11.004;2023-02-18T01:57:49;11.40;99.90
6824;DHT22;58633;49.470;11.004;2023-02-18T02:00:17;11.30;99.90
6824;DHT22;58633;49.470;11.004;2023-02-18T02:02:47;11.20;99.90
6824;DHT22;58633;49.470;11.004;2023-02-18T02:05:13;11.30;99.90
6824;DHT22;58633;49.470;11.004;2023-02-18T02:07:40;11.40;99.90
6824;DHT22;58633;49.470;11.004;2023-02-18T02:10:08;11.60;99.90
6824;DHT22;58633;49.470;11.004;2023-02-18T02:15:42;11.30;99.90
6824;DHT22;58633;49.470;11.004;2023-02-18T02:18:21;11.40;99.90
6824;DHT22;58633;49.470;11.004;2023-02-18T02:26:52;11.20;99.90
6824;DHT22;58633;49.470;11.004;2023-02-18T02:34:56;11.50;99.90
6824;DHT22;58633;49.470;11.004;2023-02-18T02:37:44;11.50;99.90
6824;DHT22;58633;49.470;11.004;2023-02-18T02:45:54;11.60;99.90
6824;DHT22;58633;49.470;11.004;2023-02-18T02:48:34;11.70;99.90
6824;DHT22;58633;49.470;11.004;2023-02-18T02:51:15;11.70;99.90
6824;DHT22;58633;49.470;11.004;2023-02-18T02:53:43;11.50;99.90
6824;DHT22;58633;49.470;11.004;2023-02-18T02:56:23;11.60;99.90
6824;DHT22;58633;49.470;11.004;2023-02-18T02:59:05;11.80;99.90
6824;DHT22;58633;49.470;11.004;2023-02-18T03:07:10;12.10;99.90
6824;DHT22;58633;49.470;11.004;2023-02-18T03:12:28;11.50;99.90
6824;DHT22;58633;49.470;11.004;2023-02-18T03:17:46;11.70;99.90
6824;DHT22;58633;49.470;11.004;2023-02-18T03:20:24;11.60;99.90
6824;DHT22;58633;49.470;11.004;2023-02-18T03:22:52;11.60;99.90
6824;DHT22;58633;49.470;11.004;2023-02-18T03:25:20;11.60;99.90
6824;DHT22;58633;49.470;11.004;2023-02-18T03:27:52;11.30;99.90
6824;DHT22;58633;49.470;11.004;2023-02-18T03:30:34;11.60;99.90
6824;DHT22;58633;49.470;11.004;2023-02-18T03:33:03;11.60;99.90
6824;DHT22;58633;49.470;11.004;2023-02-18T03:35:29;11.80;99.90
6824;DHT22;58633;49.470;11.004;2023-02-18T03:38:06;11.50;99.90
6824;DHT22;58633;49.470;11.004;2023-02-18T03:40:33;11.60;99.90
6824;DHT22;58633;49.470;11.004;2023-02-18T03:42:59;11.60;99.90
6824;DHT22;58633;49.470;11.004;2023-02-18T03:45:25;11.90;99.90
6824;DHT22;58633;49.470;11.004;2023-02-18T03:50:17;11.50;99.90
6824;DHT22;58633;49.470;11.004;2023-02-18T03:52:43;11.70;99.90
6824;DHT22;58633;49.470;11.004;2023-02-18T03:55:09;11.60;99.90
6824;DHT22;58633;49.470;11.004;2023-02-18T03:57:35;12.00;99.90
6824;DHT22;58633;49.470;11.004;2023-02-18T04:00:00;11.30;99.90
6824;DHT22;58633;49.470;11.004;2023-02-18T04:02:26;11.70;99.90
6824;DHT22;58633;49.470;11.004;2023-02-18T04:07:17;11.30;99.90
6824;DHT22;58633;49.470;11.004;2023-02-18T04:09:43;11.60;99.90
6824;DHT22;58633;49.470;11.004;2023-02-18T04:14:35;11.70;99.90
6824;DHT22;58633;49.470;11.004;2023-02-18T04:17:00;11.70;99.90
6824;DHT22;58633;49.470;11.004;2023-02-18T04:19:26;11.70;99.90
6824;DHT22;58633;49.470;11.004;2023-02-18T04:21:52;11.60;99.90
6824;DHT22;58633;49.470;11.004;2023-02-18T04:24:17;11.60;99.90
6824;DHT22;58633;49.470;11.004;2023-02-18T04:26:43;11.60;99.90
6824;DHT22;58633;49.470;11.004;2023-02-18T04:31:34;11.60;99.90
6824;DHT22;58633;49.470;11.004;2023-02-18T04:34:00;11.60;99.90
6824;DHT22;58633;49.470;11.004;2023-02-18T04:36:26;11.60;99.90
6824;DHT22;58633;49.470;11.004;2023-02-18T04:38:51;11.70;99.90
6824;DHT22;58633;49.470;11.004;2023-02-18T04:43:42;11.60;99.90
6824;DHT22;58633;49.470;11.004;2023-02-18T04:46:08;11.60;99.90
6824;DHT22;58633;49.470;11.004;2023-02-18T04:48:34;11.70;99.90
6824;DHT22;58633;49.470;11.004;2023-02-18T04:51:00;11.80;99.90
6824;DHT22;58633;49.470;11.004;2023-02-18T04:53:25;11.90;99.90
6824;DHT22;58633;49.470;11.004;2023-02-18T04:55:52;11.70;99.90
6824;DHT22;58633;49.470;11.004;2023-02-18T04:58:19;11.70;99.90
6824;DHT22;58633;49.470;11.004;2023-02-18T05:00:45;11.70;99.90
6824;DHT22;58633;49.470;11.004;2023-02-18T05:03:10;11.70;99.90
6824;DHT22;58633;49.470;11.004;2023-02-18T05:05:36;11.70;99.90
6824;DHT22;58633;49.470;11.004;2023-02-18T05:08:02;12.00;99.90
6824;DHT22;58633;49.470;11.004;2023-02-18T05:10:28;11.80;99.90
6824;DHT22;58633;49.470;11.004;2023-02-18T05:15:20;11.90;99.90
6824;DHT22;58633;49.470;11.004;2023-02-18T05:17:45;11.70;99.90
6824;DHT22;58633;49.470;11.004;2023-02-18T05:20:11;11.70;99.90
6824;DHT22;58633;49.470;11.004;2023-02-18T05:22:37;11.60;99.90
6824;DHT22;58633;49.470;11.004;2023-02-18T05:25:03;14.60;99.90
6824;DHT22;58633;49.470;11.004;2023-02-18T05:27:29;11.40;99.90
6824;DHT22;58633;49.470;11.004;2023-02-18T05:29:54;11.90;99.90
6824;DHT22;58633;49.470;11.004;2023-02-18T05:32:20;11.70;99.90
6824;DHT22;58633;49.470;11.004;2023-02-18T05:34:46;11.40;99.90
6824;DHT22;58633;49.470;11.004;2023-02-18T05:37:11;11.60;99.90
6824;DHT22;58633;49.470;11.004;2023-02-18T05:39:39;11.50;99.90
6824;DHT22;58633;49.470;11.004;2023-02-18T05:42:04;11.60;99.90
6824;DHT22;58633;49.470;11.004;2023-02-18T05:44:30;11.70;99.90
6824;DHT22;58633;49.470;11.004;2023-02-18T05:47:05;11.90;99.90
6824;DHT22;58633;49.470;11.004;2023-02-18T05:49:32;11.60;99.90
6824;DHT22;58633;49.470;11.004;2023-02-18T05:51:58;11.50;99.90
6824;DHT22;58633;49.470;11.004;2023-02-18T05:54:24;11.50;99.90
6824;DHT22;58633;49.470;11.004;2023-02-18T05:56:50;11.30;99.90
6824;DHT22;58633;49.470;11.004;2023-02-18T05:59:16;11.60;99.90
6824;DHT22;58633;49.470;11.004;2023-02-18T06:01:42;11.60;99.90
6824;DHT22;58633;49.470;11.004;2023-02-18T06:04:08;12.00;99.90
6824;DHT22;58633;49.470;11.004;2023-02-18T06:06:34;11.50;99.90
6824;DHT22;58633;49.470;11.004;2023-02-18T06:09:00;11.60;99.90
6824;DHT22;58633;49.470;11.004;2023-02-18T06:11:26;11.70;99.90
6824;DHT22;58633;49.470;11.004;2023-02-18T06:13:51;11.60;99.90
6824;DHT22;58633;49.470;11.004;2023-02-18T06:16:17;11.60;99.90
6824;DHT22;58633;49.470;11.004;2023-02-18T06:18:42;11.60;99.90
6824;DHT22;58633;49.470;11.004;2023-02-18T06:21:08;11.50;99.90
6824;DHT22;58633;49.470;11.004;2023-02-18T06:23:33;11.50;99.90
6824;DHT22;58633;49.470;11.004;2023-02-18T06:25:59;11.60;99.90
6824;DHT22;58633;49.470;11.004;2023-02-18T06:28:24;11.60;99.90
6824;DHT22;58633;49.470;11.004;2023-02-18T06:30:50;11.40;99.90
6824;DHT22;58633;49.470;11.004;2023-02-18T06:35:50;11.70;99.90
6824;DHT22;58633;49.470;11.004;2023-02-18T06:38:16;11.90;99.70
6824;DHT22;58633;49.470;11.004;2023-02-18T06:40:41;11.60;99.80
6824;DHT22;58633;49.470;11.004;2023-02-18T06:43:07;11.60;98.40
6824;DHT22;58633;49.470;11.004;2023-02-18T06:45:32;12.00;98.20
6824;DHT22;58633;49.470;11.004;2023-02-18T06:47:58;11.70;97.50
6824;DHT22;58633;49.470;11.004;2023-02-18T06:50:23;11.70;96.50
6824;DHT22;58633;49.470;11.004;2023-02-18T06:52:49;11.90;94.70
6824;DHT22;58633;49.470;11.004;2023-02-18T06:55:14;11.60;94.80
6824;DHT22;58633;49.470;11.004;2023-02-18T06:57:40;11.80;94.60
6824;DHT22;58633;49.470;11.004;2023-02-18T07:00:06;11.80;94.00
6824;DHT22;58633;49.470;11.004;2023-02-18T07:02:32;11.80;93.40
6824;DHT22;58633;49.470;11.004;2023-02-18T07:04:57;11.70;93.30
6824;DHT22;58633;49.470;11.004;2023-02-18T07:07:23;11.80;92.60
6824;DHT22;58633;49.470;11.004;2023-02-18T07:09:48;11.80;91.70
6824;DHT22;58633;49.470;11.004;2023-02-18T07:12:14;11.80;91.60
6824;DHT22;58633;49.470;11.004;2023-02-18T07:14:39;14.50;93.00
6824;DHT22;58633;49.470;11.004;2023-02-18T07:17:05;11.80;91.90
6824;DHT22;58633;49.470;11.004;2023-02-18T07:19:30;11.90;91.30
6824;DHT22;58633;49.470;11.004;2023-02-18T07:21:56;12.30;91.20
6824;DHT22;58633;49.470;11.004;2023-02-18T07:26:48;12.10;90.10
6824;DHT22;58633;49.470;11.004;2023-02-18T07:29:13;11.90;88.70
6824;DHT22;58633;49.470;11.004;2023-02-18T07:31:39;12.00;88.80
6824;DHT22;58633;49.470;11.004;2023-02-18T07:34:04;12.00;87.90
6824;DHT22;58633;49.470;11.004;2023-02-18T07:36:30;11.90;88.10
6824;DHT22;58633;49.470;11.004;2023-02-18T07:38:55;12.10;86.30
6824;DHT22;58633;49.470;11.004;2023-02-18T07:41:22;12.10;85.90
6824;DHT22;58633;49.470;11.004;2023-02-18T07:43:48;12.00;85.50
6824;DHT22;58633;49.470;11.004;2023-02-18T07:46:13;12.20;85.40
6824;DHT22;58633;49.470;11.004;2023-02-18T07:48:39;12.10;84.90
6824;DHT22;58633;49.470;11.004;2023-02-18T07:51:06;12.10;84.60
6824;DHT22;58633;49.470;11.004;2023-02-18T07:53:32;12.10;83.20
6824;DHT22;58633;49.470;11.004;2023-02-18T07:58:30;12.40;81.90
6824;DHT22;58633;49.470;11.004;2023-02-18T08:00:56;12.20;82.00
6824;DHT22;58633;49.470;11.004;2023-02-18T08:03:24;12.30;81.20
6824;DHT22;58633;49.470;11.004;2023-02-18T08:05:51;12.20;81.10
6824;DHT22;58633;49.470;11.004;2023-02-18T08:08:20;12.30;81.20
6824;DHT22;58633;49.470;11.004;2023-02-18T08:13:12;12.30;80.80
6824;DHT22;58633;49.470;11.004;2023-02-18T08:15:38;12.10;80.30
6824;DHT22;58633;49.470;11.004;2023-02-18T08:18:04;12.40;80.40
6824;DHT22;58633;49.470;11.004;2023-02-18T08:22:56;12.20;79.70
6824;DHT22;58633;49.470;11.004;2023-02-18T08:25:22;12.80;80.70
6824;DHT22;58633;49.470;11.004;2023-02-18T08:27:47;12.20;79.60
6824;DHT22;58633;49.470;11.004;2023-02-18T08:30:13;12.40;79.50
6824;DHT22;58633;49.470;11.004;2023-02-18T08:32:39;12.40;79.00
6824;DHT22;58633;49.470;11.004;2023-02-18T08:35:05;12.60;78.70
6824;DHT22;58633;49.470;11.004;2023-02-18T08:37:32;12.40;77.80
6824;DHT22;58633;49.470;11.004;2023-02-18T08:39:57;12.60;77.50
6824;DHT22;58633;49.470;11.004;2023-02-18T08:42:23;12.60;77.10
6824;DHT22;58633;49.470;11.004;2023-02-18T08:44:48;12.80;76.70
6824;DHT22;58633;49.470;11.004;2023-02-18T08:47:14;12.90;76.40
6824;DHT22;58633;49.470;11.004;2023-02-18T08:49:39;12.70;76.70
6824;DHT22;58633;49.470;11.004;2023-02-18T08:52:05;12.80;75.70
6824;DHT22;58633;49.470;11.004;2023-02-18T08:54:30;12.80;75.90
6824;DHT22;58633;49.470;11.004;2023-02-18T08:56:56;13.00;76.40
6824;DHT22;58633;49.470;11.004;2023-02-18T08:59:25;13.30;75.20
6824;DHT22;58633;49.470;11.004;2023-02-18T09:01:51;13.20;74.80
6824;DHT22;58633;49.470;11.004;2023-02-18T09:06:45;13.20;74.20
6824;DHT22;58633;49.470;11.004;2023-02-18T09:09:11;13.40;74.40
6824;DHT22;58633;49.470;11.004;2023-02-18T09:11:36;13.20;73.90
6824;DHT22;58633;49.470;11.004;2023-02-18T09:14:02;13.00;73.50
6824;DHT22;58633;49.470;11.004;2023-02-18T09:16:28;13.30;73.50
6824;DHT22;58633;49.470;11.004;2023-02-18T09:18:54;13.30;73.20
6824;DHT22;58633;49.470;11.004;2023-02-18T09:21:20;13.40;73.10
6824;DHT22;58633;49.470;11.004;2023-02-18T09:23:48;13.30;73.00
6824;DHT22;58633;49.470;11.004;2023-02-18T09:26:15;13.20;72.20
6824;DHT22;58633;49.470;11.004;2023-02-18T09:28:41;13.30;72.80
6824;DHT22;58633;49.470;11.004;2023-02-18T09:31:09;13.30;72.60
6824;DHT22;58633;49.470;11.004;2023-02-18T09:33:36;13.40;72.70
6824;DHT22;58633;49.470;11.004;2023-02-18T09:36:02;13.60;72.80
6824;DHT22;58633;49.470;11.004;2023-02-18T09:38:28;13.60;73.20
6824;DHT22;58633;49.470;11.004;2023-02-18T09:40:54;13.90;72.50
6824;DHT22;58633;49.470;11.004;2023-02-18T09:43:28;14.00;71.90
6824;DHT22;58633;49.470;11.004;2023-02-18T09:45:55;14.10;71.60
6824;DHT22;58633;49.470;11.004;2023-02-18T09:48:27;14.30;71.80
6824;DHT22;58633;49.470;11.004;2023-02-18T09:50:53;14.10;71.00
6824;DHT22;58633;49.470;11.004;2023-02-18T09:53:21;13.60;70.40
6824;DHT22;58633;49.470;11.004;2023-02-18T09:55:48;14.20;70.60
6824;DHT22;58633;49.470;11.004;2023-02-18T09:58:48;14.20;70.20
6824;DHT22;58633;49.470;11.004;2023-02-18T10:03:40;14.10;69.90
6824;DHT22;58633;49.470;11.004;2023-02-18T10:06:16;14.10;70.20
6824;DHT22;58633;49.470;11.004;2023-02-18T10:08:45;13.80;69.30
6824;DHT22;58633;49.470;11.004;2023-02-18T10:11:13;13.90;69.00
6824;DHT22;58633;49.470;11.004;2023-02-18T10:13:41;14.10;69.70
6824;DHT22;58633;49.470;11.004;2023-02-18T10:16:08;14.20;68.80
6824;DHT22;58633;49.470;11.004;2023-02-18T10:18:48;13.60;68.20
6824;DHT22;58633;49.470;11.004;2023-02-18T10:21:18;13.90;68.30
6824;DHT22;58633;49.470;11.004;2023-02-18T10:23:58;14.00;68.30
6824;DHT22;58633;49.470;11.004;2023-02-18T10:26:25;14.10;68.10
6824;DHT22;58633;49.470;11.004;2023-02-18T10:28:51;14.20;68.20
6824;DHT22;58633;49.470;11.004;2023-02-18T10:31:27;13.50;67.40
6824;DHT22;58633;49.470;11.004;2023-02-18T10:34:19;14.10;68.50
6824;DHT22;58633;49.470;11.004;2023-02-18T10:36:54;14.00;67.70
6824;DHT22;58633;49.470;11.004;2023-02-18T10:39:42;13.90;67.10
6824;DHT22;58633;49.470;11.004;2023-02-18T10:42:50;14.20;67.10
6824;DHT22;58633;49.470;11.004;2023-02-18T10:47:55;14.00;66.80
6824;DHT22;58633;49.470;11.004;2023-02-18T10:50:37;13.90;66.70
6824;DHT22;58633;49.470;11.004;2023-02-18T10:53:24;13.80;66.70
6824;DHT22;58633;49.470;11.004;2023-02-18T10:55:53;13.80;66.50
6824;DHT22;58633;49.470;11.004;2023-02-18T10:58:31;13.80;67.00
6824;DHT22;58633;49.470;11.004;2023-02-18T11:00:59;13.80;66.70
6824;DHT22;58633;49.470;11.004;2023-02-18T11:06:03;13.90;66.90
6824;DHT22;58633;49.470;11.004;2023-02-18T11:08:41;13.80;66.30
6824;DHT22;58633;49.470;11.004;2023-02-18T11:11:15;13.90;66.00
6824;DHT22;58633;49.470;11.004;2023-02-18T11:13:41;13.90;66.10
6824;DHT22;58633;49.470;11.004;2023-02-18T11:16:06;13.80;65.90
6824;DHT22;58633;49.470;11.004;2023-02-18T11:21:18;13.90;65.60
6824;DHT22;58633;49.470;11.004;2023-02-18T11:23:50;13.90;65.40
6824;DHT22;58633;49.470;11.004;2023-02-18T11:26:18;13.80;65.20
6824;DHT22;58633;49.470;11.004;2023-02-18T11:28:50;13.80;65.10
6824;DHT22;58633;49.470;11.004;2023-02-18T11:31:26;13.70;65.50
6824;DHT22;58633;49.470;11.004;2023-02-18T11:33:57;13.80;65.00
6824;DHT22;58633;49.470;11.004;2023-02-18T11:36:30;13.90;64.70
6824;DHT22;58633;49.470;11.004;2023-02-18T11:41:45;14.00;64.60
6824;DHT22;58633;49.470;11.004;2023-02-18T11:44:29;13.80;64.40
6824;DHT22;58633;49.470;11.004;2023-02-18T11:47:03;14.00;64.60
6824;DHT22;58633;49.470;11.004;2023-02-18T11:49:30;14.00;64.20
6824;DHT22;58633;49.470;11.004;2023-02-18T11:52:23;14.00;64.50
6824;DHT22;58633;49.470;11.004;2023-02-18T11:57:24;13.90;64.50
6824;DHT22;58633;49.470;11.004;2023-02-18T11:59:51;14.00;64.30
6824;DHT22;58633;49.470;11.004;2023-02-18T12:05:00;14.30;64.40
6824;DHT22;58633;49.470;11.004;2023-02-18T12:07:50;14.20;63.80
6824;DHT22;58633;49.470;11.004;2023-02-18T12:15:46;14.10;64.10
6824;DHT22;58633;49.470;11.004;2023-02-18T12:20:54;13.80;63.50
6824;DHT22;58633;49.470;11.004;2023-02-18T12:23:33;13.80;63.60
6824;DHT22;58633;49.470;11.004;2023-02-18T12:26:14;13.80;63.60
6824;DHT22;58633;49.470;11.004;2023-02-18T12:28:59;13.80;63.60
6824;DHT22;58633;49.470;11.004;2023-02-18T12:31:46;14.10;63.90
6824;DHT22;58633;49.470;11.004;2023-02-18T12:34:46;13.90;63.20
6824;DHT22;58633;49.470;11.004;2023-02-18T12:37:36;14.10;63.30
6824;DHT22;58633;49.470;11.004;2023-02-18T12:40:30;14.00;63.80
6824;DHT22;58633;49.470;11.004;2023-02-18T12:49:01;14.20;62.70
6824;DHT22;58633;49.470;11.004;2023-02-18T12:51:32;13.80;62.40
6824;DHT22;58633;49.470;11.004;2023-02-18T12:54:23;14.30;62.70
6824;DHT22;58633;49.470;11.004;2023-02-18T12:57:03;14.20;63.00
6824;DHT22;58633;49.470;11.004;2023-02-18T12:59:51;14.10;62.80
6824;DHT22;58633;49.470;11.004;2023-02-18T13:05:43;14.20;62.10
6824;DHT22;58633;49.470;11.004;2023-02-18T13:11:11;14.20;62.50
6824;DHT22;58633;49.470;11.004;2023-02-18T13:13:59;14.30;62.40
6824;DHT22;58633;49.470;11.004;2023-02-18T13:16:28;14.10;61.70
6824;DHT22;58633;49.470;11.004;2023-02-18T13:21:28;14.40;62.40
6824;DHT22;58633;49.470;11.004;2023-02-18T13:23:59;14.20;61.90
6824;DHT22;58633;49.470;11.004;2023-02-18T13:26:28;14.30;62.50
6824;DHT22;58633;49.470;11.004;2023-02-18T13:36:53;13.80;62.40
6824;DHT22;58633;49.470;11.004;2023-02-18T13:39:22;13.70;62.40
6824;DHT22;58633;49.470;11.004;2023-02-18T13:41:50;14.00;62.60
6824;DHT22;58633;49.470;11.004;2023-02-18T13:46:49;14.00;61.70
6824;DHT22;58633;49.470;11.004;2023-02-18T13:49:21;14.10;61.90
6824;DHT22;58633;49.470;11.004;2023-02-18T13:51:52;14.10;61.80
6824;DHT22;58633;49.470;11.004;2023-02-18T13:54:33;14.40;62.00
6824;DHT22;58633;49.470;11.004;2023-02-18T13:57:13;14.10;61.60
6824;DHT22;58633;49.470;11.004;2023-02-18T13:59:43;14.00;61.60
6824;DHT22;58633;49.470;11.004;2023-02-18T14:07:36;13.90;62.30
6824;DHT22;58633;49.470;11.004;2023-02-18T14:42:46;13.40;62.30
6824;DHT22;58633;49.470;11.004;2023-02-18T14:45:19;13.10;62.20
6824;DHT22;58633;49.470;11.004;2023-02-18T14:48:04;13.40;62.60
6824;DHT22;58633;49.470;11.004;2023-02-18T14:50:34;13.20;62.30
6824;DHT22;58633;49.470;11.004;2023-02-18T14:53:06;13.30;62.50
6824;DHT22;58633;49.470;11.004;2023-02-18T14:55:37;13.30;62.60
6824;DHT22;58633;49.470;11.004;2023-02-18T14:58:30;13.20;63.10
6824;DHT22;58633;49.470;11.004;2023-02-18T15:00:57;13.10;63.70
6824;DHT22;58633;49.470;11.004;2023-02-18T15:03:25;12.90;64.50
6824;DHT22;58633;49.470;11.004;2023-02-18T15:05:51;12.80;65.00
6824;DHT22;58633;49.470;11.004;2023-02-18T15:08:24;12.70;65.70
6824;DHT22;58633;49.470;11.004;2023-02-18T15:10:51;12.60;66.20
6824;DHT22;58633;49.470;11.004;2023-02-18T15:13:30;12.50;66.80
6824;DHT22;58633;49.470;11.004;2023-02-18T15:16:00;12.40;67.10
6824;DHT22;58633;49.470;11.004;2023-02-18T15:18:30;12.40;67.60
6824;DHT22;58633;49.470;11.004;2023-02-18T15:21:00;12.60;68.00
6824;DHT22;58633;49.470;11.004;2023-02-18T15:23:26;12.60;68.70
6824;DHT22;58633;49.470;11.004;2023-02-18T15:25:52;12.70;68.10
6824;DHT22;58633;49.470;11.004;2023-02-18T15:28:31;12.70;67.90
6824;DHT22;58633;49.470;11.004;2023-02-18T15:31:01;12.80;67.90
6824;DHT22;58633;49.470;11.004;2023-02-18T15:33:27;12.60;67.70
6824;DHT22;58633;49.470;11.004;2023-02-18T15:36:04;12.60;68.00
6824;DHT22;58633;49.470;11.004;2023-02-18T15:38:31;12.70;68.50
6824;DHT22;58633;49.470;11.004;2023-02-18T15:40:58;12.50;68.90
6824;DHT22;58633;49.470;11.004;2023-02-18T15:43:24;12.40;69.10
6824;DHT22;58633;49.470;11.004;2023-02-18T15:45:53;12.40;69.30
6824;DHT22;58633;49.470;11.004;2023-02-18T15:50:57;12.30;69.20
6824;DHT22;58633;49.470;11.004;2023-02-18T15:53:24;12.40;69.40
6824;DHT22;58633;49.470;11.004;2023-02-18T15:55:51;12.30;69.80
6824;DHT22;58633;49.470;11.004;2023-02-18T15:58:23;12.50;70.40
6824;DHT22;58633;49.470;11.004;2023-02-18T16:00:58;12.50;70.10
6824;DHT22;58633;49.470;11.004;2023-02-18T16:06:20;12.70;69.60
6824;DHT22;58633;49.470;11.004;2023-02-18T16:09:13;12.80;70.10
6824;DHT22;58633;49.470;11.004;2023-02-18T16:11:52;13.20;70.30
6824;DHT22;58633;49.470;11.004;2023-02-18T16:14:32;13.10;69.40
6824;DHT22;58633;49.470;11.004;2023-02-18T16:17:16;12.50;68.60
6824;DHT22;58633;49.470;11.004;2023-02-18T16:19:55;12.50;69.40
6824;DHT22;58633;49.470;11.004;2023-02-18T16:24:59;12.50;70.40
6824;DHT22;58633;49.470;11.004;2023-02-18T16:27:34;14.80;73.20
6824;DHT22;58633;49.470;11.004;2023-02-18T16:30:13;12.20;70.40
6824;DHT22;58633;49.470;11.004;2023-02-18T16:32:40;12.60;70.90
6824;DHT22;58633;49.470;11.004;2023-02-18T16:35:06;11.80;70.30
6824;DHT22;58633;49.470;11.004;2023-02-18T16:37:32;12.30;70.90
6824;DHT22;58633;49.470;11.004;2023-02-18T16:42:56;12.20;72.60
6824;DHT22;58633;49.470;11.004;2023-02-18T16:45:35;12.30;72.80
6824;DHT22;58633;49.470;11.004;2023-02-18T16:48:02;12.40;73.60
6824;DHT22;58633;49.470;11.004;2023-02-18T16:50:29;12.30;71.80
6824;DHT22;58633;49.470;11.004;2023-02-18T16:52:56;12.10;71.90
6824;DHT22;58633;49.470;11.004;2023-02-18T16:55:24;12.30;72.30
6824;DHT22;58633;49.470;11.004;2023-02-18T16:57:50;12.20;72.40
6824;DHT22;58633;49.470;11.004;2023-02-18T17:00:17;12.20;72.50
6824;DHT22;58633;49.470;11.004;2023-02-18T17:02:45;12.20;73.20
6824;DHT22;58633;49.470;11.004;2023-02-18T17:05:20;12.30;72.90
6824;DHT22;58633;49.470;11.004;2023-02-18T17:07:46;11.90;72.40
6824;DHT22;58633;49.470;11.004;2023-02-18T17:10:12;12.10;72.80
6824;DHT22;58633;49.470;11.004;2023-02-18T17:12:38;11.80;72.90
6824;DHT22;58633;49.470;11.004;2023-02-18T17:15:25;11.60;72.60
6824;DHT22;58633;49.470;11.004;2023-02-18T17:17:51;12.10;72.90
6824;DHT22;58633;49.470;11.004;2023-02-18T17:20:17;12.00;73.20
6824;DHT22;58633;49.470;11.004;2023-02-18T17:22:43;11.90;72.10
6824;DHT22;58633;49.470;11.004;2023-02-18T17:25:14;11.70;71.70
6824;DHT22;58633;49.470;11.004;2023-02-18T17:27:41;12.10;72.20
6824;DHT22;58633;49.470;11.004;2023-02-18T17:30:07;11.80;71.80
6824;DHT22;58633;49.470;11.004;2023-02-18T17:32:33;11.90;72.00
6824;DHT22;58633;49.470;11.004;2023-02-18T17:34:59;11.90;71.80
6824;DHT22;58633;49.470;11.004;2023-02-18T17:37:24;11.90;71.80
6824;DHT22;58633;49.470;11.004;2023-02-18T17:39:50;12.00;72.00
6824;DHT22;58633;49.470;11.004;2023-02-18T17:42:16;12.20;72.20
6824;DHT22;58633;49.470;11.004;2023-02-18T17:44:41;12.00;71.80
6824;DHT22;58633;49.470;11.004;2023-02-18T17:47:07;11.70;71.70
6824;DHT22;58633;49.470;11.004;2023-02-18T17:49:33;11.70;71.80
6824;DHT22;58633;49.470;11.004;2023-02-18T17:51:58;11.60;72.30
6824;DHT22;58633;49.470;11.004;2023-02-18T17:54:25;11.50;71.60
6824;DHT22;58633;49.470;11.004;2023-02-18T17:56:51;12.00;72.10
6824;DHT22;58633;49.470;11.004;2023-02-18T17:59:16;11.60;72.20
6824;DHT22;58633;49.470;11.004;2023-02-18T18:01:42;11.50;71.60
6824;DHT22;58633;49.470;11.004;2023-02-18T18:04:15;11.70;72.30
6824;DHT22;58633;49.470;11.004;2023-02-18T18:06:42;11.60;71.70
6824;DHT22;58633;49.470;11.004;2023-02-18T18:09:08;11.70;71.70
6824;DHT22;58633;49.470;11.004;2023-02-18T18:14:00;11.50;71.30
6824;DHT22;58633;49.470;11.004;2023-02-18T18:16:25;11.50;72.10
6824;DHT22;58633;49.470;11.004;2023-02-18T18:18:51;11.50;72.50
6824;DHT22;58633;49.470;11.004;2023-02-18T18:21:28;11.50;72.40
6824;DHT22;58633;49.470;11.004;2023-02-18T18:23:54;11.60;72.40
6824;DHT22;58633;49.470;11.004;2023-02-18T18:26:20;11.40;72.70
6824;DHT22;58633;49.470;11.004;2023-02-18T18:28:45;11.60;72.10
6824;DHT22;58633;49.470;11.004;2023-02-18T18:31:14;11.50;72.50
6824;DHT22;58633;49.470;11.004;2023-02-18T18:33:40;11.60;72.00
6824;DHT22;58633;49.470;11.004;2023-02-18T18:36:06;11.50;72.40